sensor_id;sensor_type;location;lat;lon;timestamp;P1;durP1;ratioP1;P2;durP2;ratioP2
26750;SDS011;14345;48.272;25.926;2023-03-24T00:00:12;14.48;;;9.60;;
26750;SDS011;14345;48.272;25.926;2023-03-24T00:02:39;12.57;;;8.75;;
26750;SDS011;14345;48.272;25.926;2023-03-24T00:05:09;14.73;;;8.70;;
26750;SDS011;14345;48.272;25.926;2023-03-24T00:07:36;16.52;;;9.10;;
26750;SDS011;14345;48.272;25.926;2023-03-24T00:10:04;13.02;;;8.38;;
26750;SDS011;14345;48.272;25.926;2023-03-24T00:12:30;13.35;;;8.93;;
26750;SDS011;14345;48.272;25.926;2023-03-24T00:14:57;13.43;;;8.85;;
26750;SDS011;14345;48.272;25.926;2023-03-24T00:17:26;15.88;;;8.82;;
26750;SDS011;14345;48.272;25.926;2023-03-24T00:19:53;15.68;;;9.38;;
26750;SDS011;14345;48.272;25.926;2023-03-24T00:22:20;17.45;;;10.15;;
26750;SDS011;14345;48.272;25.926;2023-03-24T00:24:46;16.13;;;9.68;;
26750;SDS011;14345;48.272;25.926;2023-03-24T00:27:13;14.50;;;8.40;;
26750;SDS011;14345;48.272;25.926;2023-03-24T00:29:41;17.23;;;9.88;;
26750;SDS011;14345;48.272;25.926;2023-03-24T00:32:07;18.13;;;10.10;;
26750;SDS011;14345;48.272;25.926;2023-03-24T00:34:33;17.23;;;10.63;;
26750;SDS011;14345;48.272;25.926;2023-03-24T00:37:02;15.50;;;9.90;;
26750;SDS011;14345;48.272;25.926;2023-03-24T00:39:29;14.63;;;8.70;;
26750;SDS011;14345;48.272;25.926;2023-03-24T00:41:55;13.20;;;9.25;;
26750;SDS011;14345;48.272;25.926;2023-03-24T00:44:23;15.40;;;9.20;;
26750;SDS011;14345;48.272;25.926;2023-03-24T00:46:50;17.20;;;10.57;;
26750;SDS011;14345;48.272;25.926;2023-03-24T00:49:23;19.58;;;12.18;;
26750;SDS011;14345;48.272;25.926;2023-03-24T00:52:13;22.92;;;14.55;;
26750;SDS011;14345;48.272;25.926;2023-03-24T00:54:40;24.23;;;15.50;;
26750;SDS011;14345;48.272;25.926;2023-03-24T00:57:07;23.17;;;14.43;;
26750;SDS011;14345;48.272;25.926;2023-03-24T00:59:33;20.83;;;12.95;;
26750;SDS011;14345;48.272;25.926;2023-03-24T01:02:06;13.38;;;8.57;;
26750;SDS011;14345;48.272;25.926;2023-03-24T01:04:36;24.35;;;14.13;;
26750;SDS011;14345;48.272;25.926;2023-03-24T01:07:02;21.90;;;13.02;;
26750;SDS011;14345;48.272;25.926;2023-03-24T01:09:28;20.35;;;12.57;;
26750;SDS011;14345;48.272;25.926;2023-03-24T01:11:54;25.08;;;13.57;;
26750;SDS011;14345;48.272;25.926;2023-03-24T01:14:20;22.25;;;13.65;;
26750;SDS011;14345;48.272;25.926;2023-03-24T01:16:46;21.77;;;13.05;;
26750;SDS011;14345;48.272;25.926;2023-03-24T01:19:12;23.23;;;14.40;;
26750;SDS011;14345;48.272;25.926;2023-03-24T01:21:39;24.27;;;13.02;;
26750;SDS011;14345;48.272;25.926;2023-03-24T01:24:06;23.15;;;13.60;;
26750;SDS011;14345;48.272;25.926;2023-03-24T01:26:32;19.13;;;12.52;;
26750;SDS011;14345;48.272;25.926;2023-03-24T01:28:59;22.45;;;12.75;;
26750;SDS011;14345;48.272;25.926;2023-03-24T01:31:25;18.08;;;12.10;;
26750;SDS011;14345;48.272;25.926;2023-03-24T01:33:51;20.00;;;11.20;;
26750;SDS011;14345;48.272;25.926;2023-03-24T01:36:17;17.90;;;11.38;;
26750;SDS011;14345;48.272;25.926;2023-03-24T01:38:43;19.13;;;10.65;;
26750;SDS011;14345;48.272;25.926;2023-03-24T01:41:09;18.63;;;10.60;;
26750;SDS011;14345;48.272;25.926;2023-03-24T01:43:35;16.58;;;11.13;;
26750;SDS011;14345;48.272;25.926;2023-03-24T01:53:32;16.10;;;9.88;;
26750;SDS011;14345;48.272;25.926;2023-03-24T01:55:59;16.65;;;9.98;;
26750;SDS011;14345;48.272;25.926;2023-03-24T01:58:27;15.02;;;9.77;;
26750;SDS011;14345;48.272;25.926;2023-03-24T02:00:54;15.40;;;9.73;;
26750;SDS011;14345;48.272;25.926;2023-03-24T02:03:22;15.35;;;9.25;;
26750;SDS011;14345;48.272;25.926;2023-03-24T02:05:49;17.60;;;10.10;;
26750;SDS011;14345;48.272;25.926;2023-03-24T02:10:41;16.67;;;10.85;;
26750;SDS011;14345;48.272;25.926;2023-03-24T02:13:08;16.20;;;9.70;;
26750;SDS011;14345;48.272;25.926;2023-03-24T02:15:38;15.27;;;10.10;;
26750;SDS011;14345;48.272;25.926;2023-03-24T02:41:49;15.98;;;11.73;;
26750;SDS011;14345;48.272;25.926;2023-03-24T02:44:35;18.48;;;12.73;;
26750;SDS011;14345;48.272;25.926;2023-03-24T02:49:59;18.10;;;13.50;;
26750;SDS011;14345;48.272;25.926;2023-03-24T02:52:34;17.80;;;13.05;;
26750;SDS011;14345;48.272;25.926;2023-03-24T02:57:39;15.55;;;11.63;;
26750;SDS011;14345;48.272;25.926;2023-03-24T03:02:36;15.95;;;11.32;;
26750;SDS011;14345;48.272;25.926;2023-03-24T03:05:06;15.95;;;11.02;;
26750;SDS011;14345;48.272;25.926;2023-03-24T03:07:33;15.85;;;10.77;;
26750;SDS011;14345;48.272;25.926;2023-03-24T03:12:29;13.85;;;9.25;;
26750;SDS011;14345;48.272;25.926;2023-03-24T03:14:58;20.83;;;11.05;;
26750;SDS011;14345;48.272;25.926;2023-03-24T03:17:27;17.08;;;10.68;;
26750;SDS011;14345;48.272;25.926;2023-03-24T03:20:06;14.82;;;9.43;;
26750;SDS011;14345;48.272;25.926;2023-03-24T03:22:45;15.85;;;10.27;;
26750;SDS011;14345;48.272;25.926;2023-03-24T03:25:12;19.67;;;11.05;;
26750;SDS011;14345;48.272;25.926;2023-03-24T03:27:40;16.33;;;10.38;;
26750;SDS011;14345;48.272;25.926;2023-03-24T03:30:09;16.02;;;10.57;;
26750;SDS011;14345;48.272;25.926;2023-03-24T03:32:39;15.80;;;9.82;;
26750;SDS011;14345;48.272;25.926;2023-03-24T03:43:09;12.30;;;8.32;;
26750;SDS011;14345;48.272;25.926;2023-03-24T03:45:35;12.65;;;7.32;;
26750;SDS011;14345;48.272;25.926;2023-03-24T03:48:01;11.48;;;7.60;;
26750;SDS011;14345;48.272;25.926;2023-03-24T03:50:27;11.07;;;7.43;;
26750;SDS011;14345;48.272;25.926;2023-03-24T03:52:53;12.30;;;6.38;;
26750;SDS011;14345;48.272;25.926;2023-03-24T03:55:21;10.50;;;6.93;;
26750;SDS011;14345;48.272;25.926;2023-03-24T03:57:47;9.35;;;6.35;;
26750;SDS011;14345;48.272;25.926;2023-03-24T04:00:15;8.32;;;6.50;;
26750;SDS011;14345;48.272;25.926;2023-03-24T04:08:10;8.15;;;5.70;;
26750;SDS011;14345;48.272;25.926;2023-03-24T04:13:07;9.13;;;5.90;;
26750;SDS011;14345;48.272;25.926;2023-03-24T04:15:45;8.98;;;5.78;;
26750;SDS011;14345;48.272;25.926;2023-03-24T04:23:33;8.18;;;5.50;;
26750;SDS011;14345;48.272;25.926;2023-03-24T04:26:09;9.40;;;5.72;;
26750;SDS011;14345;48.272;25.926;2023-03-24T04:28:41;12.10;;;6.03;;
26750;SDS011;14345;48.272;25.926;2023-03-24T04:31:19;7.05;;;4.78;;
26750;SDS011;14345;48.272;25.926;2023-03-24T04:34:00;9.98;;;6.07;;
26750;SDS011;14345;48.272;25.926;2023-03-24T04:37:13;11.02;;;6.28;;
26750;SDS011;14345;48.272;25.926;2023-03-24T04:39:19;10.55;;;6.30;;
26750;SDS011;14345;48.272;25.926;2023-03-24T04:41:53;16.40;;;8.63;;
26750;SDS011;14345;48.272;25.926;2023-03-24T04:44:20;15.00;;;8.75;;
26750;SDS011;14345;48.272;25.926;2023-03-24T04:46:50;9.77;;;7.13;;
26750;SDS011;14345;48.272;25.926;2023-03-24T04:49:16;10.93;;;7.28;;
26750;SDS011;14345;48.272;25.926;2023-03-24T04:51:49;10.80;;;5.85;;
26750;SDS011;14345;48.272;25.926;2023-03-24T04:54:15;10.38;;;6.40;;
26750;SDS011;14345;48.272;25.926;2023-03-24T04:56:51;9.63;;;5.60;;
26750;SDS011;14345;48.272;25.926;2023-03-24T04:59:18;7.90;;;5.88;;
26750;SDS011;14345;48.272;25.926;2023-03-24T05:01:44;10.10;;;5.68;;
26750;SDS011;14345;48.272;25.926;2023-03-24T05:04:13;9.15;;;5.72;;
26750;SDS011;14345;48.272;25.926;2023-03-24T05:06:40;7.60;;;5.00;;
26750;SDS011;14345;48.272;25.926;2023-03-24T05:09:06;8.38;;;5.43;;
26750;SDS011;14345;48.272;25.926;2023-03-24T05:11:32;7.03;;;4.93;;
26750;SDS011;14345;48.272;25.926;2023-03-24T05:13:58;7.38;;;4.60;;
26750;SDS011;14345;48.272;25.926;2023-03-24T05:16:24;5.90;;;4.18;;
26750;SDS011;14345;48.272;25.926;2023-03-24T05:18:50;8.18;;;4.90;;
26750;SDS011;14345;48.272;25.926;2023-03-24T05:21:16;10.75;;;6.43;;
26750;SDS011;14345;48.272;25.926;2023-03-24T05:23:44;10.27;;;5.97;;
26750;SDS011;14345;48.272;25.926;2023-03-24T05:26:10;11.90;;;5.63;;
26750;SDS011;14345;48.272;25.926;2023-03-24T05:28:37;8.77;;;6.00;;
26750;SDS011;14345;48.272;25.926;2023-03-24T05:31:03;12.80;;;6.30;;
26750;SDS011;14345;48.272;25.926;2023-03-24T05:33:29;11.13;;;6.10;;
26750;SDS011;14345;48.272;25.926;2023-03-24T05:35:55;10.15;;;6.55;;
26750;SDS011;14345;48.272;25.926;2023-03-24T05:38:21;6.22;;;4.90;;
26750;SDS011;14345;48.272;25.926;2023-03-24T05:40:47;8.82;;;6.13;;
26750;SDS011;14345;48.272;25.926;2023-03-24T05:43:13;10.52;;;6.30;;
26750;SDS011;14345;48.272;25.926;2023-03-24T05:45:40;12.85;;;6.90;;
26750;SDS011;14345;48.272;25.926;2023-03-24T05:48:06;11.45;;;6.70;;
26750;SDS011;14345;48.272;25.926;2023-03-24T05:50:32;11.07;;;6.22;;
26750;SDS011;14345;48.272;25.926;2023-03-24T05:52:58;10.13;;;6.30;;
26750;SDS011;14345;48.272;25.926;2023-03-24T05:55:25;13.23;;;6.05;;
26750;SDS011;14345;48.272;25.926;2023-03-24T05:57:51;10.88;;;6.13;;
26750;SDS011;14345;48.272;25.926;2023-03-24T06:00:18;10.63;;;5.40;;
26750;SDS011;14345;48.272;25.926;2023-03-24T06:02:45;8.55;;;5.68;;
26750;SDS011;14345;48.272;25.926;2023-03-24T06:05:11;10.30;;;5.95;;
26750;SDS011;14345;48.272;25.926;2023-03-24T06:07:38;15.88;;;6.45;;
26750;SDS011;14345;48.272;25.926;2023-03-24T06:10:06;10.80;;;5.82;;
26750;SDS011;14345;48.272;25.926;2023-03-24T06:12:35;13.15;;;5.55;;
26750;SDS011;14345;48.272;25.926;2023-03-24T06:15:01;9.10;;;5.15;;
26750;SDS011;14345;48.272;25.926;2023-03-24T06:17:27;12.55;;;7.43;;
26750;SDS011;14345;48.272;25.926;2023-03-24T06:19:54;23.10;;;10.10;;
26750;SDS011;14345;48.272;25.926;2023-03-24T06:22:27;23.40;;;10.00;;
26750;SDS011;14345;48.272;25.926;2023-03-24T06:24:53;22.50;;;11.43;;
26750;SDS011;14345;48.272;25.926;2023-03-24T06:27:21;24.48;;;12.00;;
26750;SDS011;14345;48.272;25.926;2023-03-24T06:29:50;28.92;;;14.00;;
26750;SDS011;14345;48.272;25.926;2023-03-24T06:32:19;30.73;;;13.20;;
26750;SDS011;14345;48.272;25.926;2023-03-24T06:34:45;32.45;;;15.07;;
26750;SDS011;14345;48.272;25.926;2023-03-24T06:37:11;24.85;;;13.88;;
26750;SDS011;14345;48.272;25.926;2023-03-24T06:39:38;28.98;;;13.23;;
26750;SDS011;14345;48.272;25.926;2023-03-24T06:42:04;23.15;;;12.57;;
26750;SDS011;14345;48.272;25.926;2023-03-24T06:44:31;19.95;;;9.93;;
26750;SDS011;14345;48.272;25.926;2023-03-24T06:46:57;16.95;;;7.97;;
26750;SDS011;14345;48.272;25.926;2023-03-24T06:49:23;12.00;;;7.93;;
26750;SDS011;14345;48.272;25.926;2023-03-24T06:51:49;16.00;;;9.20;;
26750;SDS011;14345;48.272;25.926;2023-03-24T06:54:16;17.52;;;9.30;;
26750;SDS011;14345;48.272;25.926;2023-03-24T06:56:42;19.15;;;9.85;;
26750;SDS011;14345;48.272;25.926;2023-03-24T06:59:08;22.63;;;9.65;;
26750;SDS011;14345;48.272;25.926;2023-03-24T07:01:35;19.92;;;9.07;;
26750;SDS011;14345;48.272;25.926;2023-03-24T07:04:02;18.67;;;8.63;;
26750;SDS011;14345;48.272;25.926;2023-03-24T07:06:28;18.58;;;9.07;;
26750;SDS011;14345;48.272;25.926;2023-03-24T07:08:55;18.90;;;8.38;;
26750;SDS011;14345;48.272;25.926;2023-03-24T07:11:21;16.33;;;8.23;;
26750;SDS011;14345;48.272;25.926;2023-03-24T07:13:47;14.77;;;8.15;;
26750;SDS011;14345;48.272;25.926;2023-03-24T07:16:13;16.88;;;8.43;;
26750;SDS011;14345;48.272;25.926;2023-03-24T07:18:40;15.85;;;9.10;;
26750;SDS011;14345;48.272;25.926;2023-03-24T07:21:06;16.60;;;8.63;;
26750;SDS011;14345;48.272;25.926;2023-03-24T07:23:32;12.02;;;7.22;;
26750;SDS011;14345;48.272;25.926;2023-03-24T07:25:59;14.75;;;7.32;;
26750;SDS011;14345;48.272;25.926;2023-03-24T07:28:25;11.07;;;6.55;;
26750;SDS011;14345;48.272;25.926;2023-03-24T07:30:51;16.42;;;6.53;;
26750;SDS011;14345;48.272;25.926;2023-03-24T07:33:17;10.40;;;6.32;;
26750;SDS011;14345;48.272;25.926;2023-03-24T07:35:43;10.35;;;6.47;;
26750;SDS011;14345;48.272;25.926;2023-03-24T07:38:09;10.75;;;6.10;;
26750;SDS011;14345;48.272;25.926;2023-03-24T07:40:36;8.07;;;5.70;;
26750;SDS011;14345;48.272;25.926;2023-03-24T07:43:02;13.40;;;5.90;;
26750;SDS011;14345;48.272;25.926;2023-03-24T07:45:32;11.10;;;5.68;;
26750;SDS011;14345;48.272;25.926;2023-03-24T07:47:58;10.25;;;5.72;;
26750;SDS011;14345;48.272;25.926;2023-03-24T07:50:29;12.10;;;6.32;;
26750;SDS011;14345;48.272;25.926;2023-03-24T07:52:55;12.73;;;6.70;;
26750;SDS011;14345;48.272;25.926;2023-03-24T07:55:21;19.63;;;7.22;;
26750;SDS011;14345;48.272;25.926;2023-03-24T07:57:48;13.40;;;7.38;;
26750;SDS011;14345;48.272;25.926;2023-03-24T08:00:14;14.38;;;7.78;;
26750;SDS011;14345;48.272;25.926;2023-03-24T08:02:44;14.05;;;8.18;;
26750;SDS011;14345;48.272;25.926;2023-03-24T08:05:11;14.45;;;7.55;;
26750;SDS011;14345;48.272;25.926;2023-03-24T08:07:41;13.77;;;8.65;;
26750;SDS011;14345;48.272;25.926;2023-03-24T08:10:11;12.63;;;7.88;;
26750;SDS011;14345;48.272;25.926;2023-03-24T08:12:38;13.95;;;8.70;;
26750;SDS011;14345;48.272;25.926;2023-03-24T08:15:05;16.65;;;8.82;;
26750;SDS011;14345;48.272;25.926;2023-03-24T08:17:31;17.55;;;8.50;;
26750;SDS011;14345;48.272;25.926;2023-03-24T08:19:58;13.25;;;8.05;;
26750;SDS011;14345;48.272;25.926;2023-03-24T08:22:24;13.95;;;9.50;;
26750;SDS011;14345;48.272;25.926;2023-03-24T08:24:51;16.40;;;9.88;;
26750;SDS011;14345;48.272;25.926;2023-03-24T08:27:17;18.73;;;9.77;;
26750;SDS011;14345;48.272;25.926;2023-03-24T08:29:43;17.33;;;9.35;;
26750;SDS011;14345;48.272;25.926;2023-03-24T08:32:09;15.63;;;8.35;;
26750;SDS011;14345;48.272;25.926;2023-03-24T08:34:35;18.85;;;8.52;;
26750;SDS011;14345;48.272;25.926;2023-03-24T08:37:01;14.80;;;7.75;;
26750;SDS011;14345;48.272;25.926;2023-03-24T08:39:27;15.57;;;8.25;;
26750;SDS011;14345;48.272;25.926;2023-03-24T08:41:56;19.90;;;9.00;;
26750;SDS011;14345;48.272;25.926;2023-03-24T08:44:22;14.30;;;9.18;;
26750;SDS011;14345;48.272;25.926;2023-03-24T08:46:48;15.45;;;8.40;;
26750;SDS011;14345;48.272;25.926;2023-03-24T08:49:15;10.77;;;6.53;;
26750;SDS011;14345;48.272;25.926;2023-03-24T08:51:42;19.95;;;7.45;;
26750;SDS011;14345;48.272;25.926;2023-03-24T08:54:08;14.63;;;7.10;;
26750;SDS011;14345;48.272;25.926;2023-03-24T08:56:36;11.93;;;6.32;;
26750;SDS011;14345;48.272;25.926;2023-03-24T08:59:02;13.90;;;6.97;;
26750;SDS011;14345;48.272;25.926;2023-03-24T09:01:29;16.70;;;8.85;;
26750;SDS011;14345;48.272;25.926;2023-03-24T09:03:56;11.95;;;6.10;;
26750;SDS011;14345;48.272;25.926;2023-03-24T09:06:22;9.45;;;5.88;;
26750;SDS011;14345;48.272;25.926;2023-03-24T09:08:48;9.82;;;5.57;;
26750;SDS011;14345;48.272;25.926;2023-03-24T09:11:15;14.82;;;6.30;;
26750;SDS011;14345;48.272;25.926;2023-03-24T09:13:42;8.23;;;5.75;;
26750;SDS011;14345;48.272;25.926;2023-03-24T09:16:08;9.55;;;6.03;;
26750;SDS011;14345;48.272;25.926;2023-03-24T09:18:34;8.85;;;5.88;;
26750;SDS011;14345;48.272;25.926;2023-03-24T09:21:01;9.65;;;5.80;;
26750;SDS011;14345;48.272;25.926;2023-03-24T09:23:27;10.90;;;5.82;;
26750;SDS011;14345;48.272;25.926;2023-03-24T09:25:55;10.60;;;4.72;;
26750;SDS011;14345;48.272;25.926;2023-03-24T09:28:21;7.22;;;3.50;;
26750;SDS011;14345;48.272;25.926;2023-03-24T09:30:48;4.88;;;3.10;;
26750;SDS011;14345;48.272;25.926;2023-03-24T09:33:15;4.35;;;2.75;;
26750;SDS011;14345;48.272;25.926;2023-03-24T09:35:41;3.78;;;2.70;;
26750;SDS011;14345;48.272;25.926;2023-03-24T09:38:07;3.85;;;2.90;;
26750;SDS011;14345;48.272;25.926;2023-03-24T09:40:36;6.10;;;2.38;;
26750;SDS011;14345;48.272;25.926;2023-03-24T09:43:04;4.38;;;2.20;;
26750;SDS011;14345;48.272;25.926;2023-03-24T09:45:42;3.95;;;2.15;;
26750;SDS011;14345;48.272;25.926;2023-03-24T09:48:11;8.70;;;2.92;;
26750;SDS011;14345;48.272;25.926;2023-03-24T09:51:02;7.82;;;3.08;;
26750;SDS011;14345;48.272;25.926;2023-03-24T09:53:35;1.88;;;1.65;;
26750;SDS011;14345;48.272;25.926;2023-03-24T09:56:10;2.75;;;2.03;;
26750;SDS011;14345;48.272;25.926;2023-03-24T09:58:36;5.28;;;2.47;;
26750;SDS011;14345;48.272;25.926;2023-03-24T10:01:06;3.47;;;2.15;;
26750;SDS011;14345;48.272;25.926;2023-03-24T10:03:32;3.42;;;2.13;;
26750;SDS011;14345;48.272;25.926;2023-03-24T10:06:00;2.95;;;2.30;;
26750;SDS011;14345;48.272;25.926;2023-03-24T10:08:53;2.35;;;2.03;;
26750;SDS011;14345;48.272;25.926;2023-03-24T10:16:17;4.63;;;3.30;;
26750;SDS011;14345;48.272;25.926;2023-03-24T10:18:48;4.18;;;2.63;;
26750;SDS011;14345;48.272;25.926;2023-03-24T10:21:18;6.32;;;2.85;;
26750;SDS011;14345;48.272;25.926;2023-03-24T10:24:06;3.00;;;2.28;;
26750;SDS011;14345;48.272;25.926;2023-03-24T10:31:47;6.30;;;2.70;;
26750;SDS011;14345;48.272;25.926;2023-03-24T10:34:15;3.20;;;2.20;;
26750;SDS011;14345;48.272;25.926;2023-03-24T10:36:41;3.47;;;2.60;;
26750;SDS011;14345;48.272;25.926;2023-03-24T10:39:12;5.30;;;2.95;;
26750;SDS011;14345;48.272;25.926;2023-03-24T10:41:39;7.00;;;2.60;;
26750;SDS011;14345;48.272;25.926;2023-03-24T10:44:06;5.90;;;2.50;;
26750;SDS011;14345;48.272;25.926;2023-03-24T10:46:33;2.75;;;2.08;;
26750;SDS011;14345;48.272;25.926;2023-03-24T10:51:45;5.50;;;2.25;;
26750;SDS011;14345;48.272;25.926;2023-03-24T10:54:23;3.38;;;2.15;;
26750;SDS011;14345;48.272;25.926;2023-03-24T11:01:54;4.07;;;1.83;;
26750;SDS011;14345;48.272;25.926;2023-03-24T11:04:21;2.13;;;1.92;;
26750;SDS011;14345;48.272;25.926;2023-03-24T11:07:20;3.03;;;1.85;;
26750;SDS011;14345;48.272;25.926;2023-03-24T11:09:43;5.15;;;1.95;;
26750;SDS011;14345;48.272;25.926;2023-03-24T11:12:23;2.17;;;1.60;;
26750;SDS011;14345;48.272;25.926;2023-03-24T11:14:49;4.90;;;2.50;;
26750;SDS011;14345;48.272;25.926;2023-03-24T11:17:18;4.55;;;2.15;;
26750;SDS011;14345;48.272;25.926;2023-03-24T11:19:52;7.03;;;3.70;;
26750;SDS011;14345;48.272;25.926;2023-03-24T11:22:18;3.35;;;2.63;;
26750;SDS011;14345;48.272;25.926;2023-03-24T11:24:44;3.65;;;2.10;;
26750;SDS011;14345;48.272;25.926;2023-03-24T11:27:12;5.60;;;2.20;;
26750;SDS011;14345;48.272;25.926;2023-03-24T11:29:40;2.75;;;1.85;;
26750;SDS011;14345;48.272;25.926;2023-03-24T11:32:11;4.68;;;2.22;;
26750;SDS011;14345;48.272;25.926;2023-03-24T11:34:48;2.40;;;1.67;;
26750;SDS011;14345;48.272;25.926;2023-03-24T11:37:17;3.58;;;2.30;;
26750;SDS011;14345;48.272;25.926;2023-03-24T11:39:50;2.72;;;1.98;;
26750;SDS011;14345;48.272;25.926;2023-03-24T11:42:29;4.25;;;1.98;;
26750;SDS011;14345;48.272;25.926;2023-03-24T11:44:55;2.45;;;1.90;;
26750;SDS011;14345;48.272;25.926;2023-03-24T11:47:36;7.05;;;2.40;;
26750;SDS011;14345;48.272;25.926;2023-03-24T11:55:34;5.82;;;2.42;;
26750;SDS011;14345;48.272;25.926;2023-03-24T11:58:03;3.72;;;2.08;;
26750;SDS011;14345;48.272;25.926;2023-03-24T12:00:34;2.03;;;1.80;;
26750;SDS011;14345;48.272;25.926;2023-03-24T12:05:40;2.63;;;1.95;;
26750;SDS011;14345;48.272;25.926;2023-03-24T12:10:48;3.08;;;2.20;;
26750;SDS011;14345;48.272;25.926;2023-03-24T12:13:35;10.00;;;2.70;;
26750;SDS011;14345;48.272;25.926;2023-03-24T12:24:20;9.55;;;2.25;;
26750;SDS011;14345;48.272;25.926;2023-03-24T12:31:32;3.65;;;1.95;;
26750;SDS011;14345;48.272;25.926;2023-03-24T12:34:14;3.95;;;2.00;;
26750;SDS011;14345;48.272;25.926;2023-03-24T12:39:29;8.15;;;1.92;;
26750;SDS011;14345;48.272;25.926;2023-03-24T12:54:57;5.47;;;1.70;;
26750;SDS011;14345;48.272;25.926;2023-03-24T12:57:31;2.95;;;2.33;;
26750;SDS011;14345;48.272;25.926;2023-03-24T12:59:59;4.07;;;1.80;;
26750;SDS011;14345;48.272;25.926;2023-03-24T13:02:28;6.55;;;5.38;;
26750;SDS011;14345;48.272;25.926;2023-03-24T13:04:56;6.95;;;2.80;;
26750;SDS011;14345;48.272;25.926;2023-03-24T13:07:28;5.50;;;2.17;;
26750;SDS011;14345;48.272;25.926;2023-03-24T13:09:56;4.35;;;2.40;;
26750;SDS011;14345;48.272;25.926;2023-03-24T13:17:38;3.45;;;1.88;;
26750;SDS011;14345;48.272;25.926;2023-03-24T13:20:06;3.53;;;1.90;;
26750;SDS011;14345;48.272;25.926;2023-03-24T13:22:37;3.33;;;2.05;;
26750;SDS011;14345;48.272;25.926;2023-03-24T13:25:05;5.10;;;2.33;;
26750;SDS011;14345;48.272;25.926;2023-03-24T13:27:37;4.50;;;2.58;;
26750;SDS011;14345;48.272;25.926;2023-03-24T13:37:37;6.15;;;2.33;;
26750;SDS011;14345;48.272;25.926;2023-03-24T13:40:09;2.90;;;1.98;;
26750;SDS011;14345;48.272;25.926;2023-03-24T13:42:58;4.25;;;3.15;;
26750;SDS011;14345;48.272;25.926;2023-03-24T13:45:25;11.18;;;6.85;;
26750;SDS011;14345;48.272;25.926;2023-03-24T13:48:34;4.85;;;3.40;;
26750;SDS011;14345;48.272;25.926;2023-03-24T13:50:52;6.00;;;2.90;;
26750;SDS011;14345;48.272;25.926;2023-03-24T13:53:19;3.28;;;2.30;;
26750;SDS011;14345;48.272;25.926;2023-03-24T13:55:50;4.10;;;2.15;;
26750;SDS011;14345;48.272;25.926;2023-03-24T13:58:18;3.05;;;1.92;;
26750;SDS011;14345;48.272;25.926;2023-03-24T14:01:04;2.60;;;2.22;;
26750;SDS011;14345;48.272;25.926;2023-03-24T14:03:34;4.30;;;2.50;;
26750;SDS011;14345;48.272;25.926;2023-03-24T14:06:07;7.85;;;2.33;;
26750;SDS011;14345;48.272;25.926;2023-03-24T14:08:39;3.92;;;2.15;;
26750;SDS011;14345;48.272;25.926;2023-03-24T14:11:09;4.40;;;2.30;;
26750;SDS011;14345;48.272;25.926;2023-03-24T14:13:52;3.10;;;1.90;;
26750;SDS011;14345;48.272;25.926;2023-03-24T14:21:52;4.60;;;2.63;;
26750;SDS011;14345;48.272;25.926;2023-03-24T14:24:22;4.47;;;2.17;;
26750;SDS011;14345;48.272;25.926;2023-03-24T14:26:49;3.22;;;2.10;;
26750;SDS011;14345;48.272;25.926;2023-03-24T14:32:20;4.57;;;2.47;;
26750;SDS011;14345;48.272;25.926;2023-03-24T14:34:56;13.80;;;3.05;;
26750;SDS011;14345;48.272;25.926;2023-03-24T14:37:24;6.68;;;2.70;;
26750;SDS011;14345;48.272;25.926;2023-03-24T14:39:51;7.72;;;2.58;;
26750;SDS011;14345;48.272;25.926;2023-03-24T14:44:57;4.32;;;2.10;;
26750;SDS011;14345;48.272;25.926;2023-03-24T14:47:24;4.85;;;2.03;;
26750;SDS011;14345;48.272;25.926;2023-03-24T14:49:51;7.03;;;2.53;;
26750;SDS011;14345;48.272;25.926;2023-03-24T14:54:57;2.50;;;2.15;;
26750;SDS011;14345;48.272;25.926;2023-03-24T14:57:25;5.43;;;2.47;;
26750;SDS011;14345;48.272;25.926;2023-03-24T15:02:26;8.23;;;2.60;;
26750;SDS011;14345;48.272;25.926;2023-03-24T15:07:42;9.95;;;4.30;;
26750;SDS011;14345;48.272;25.926;2023-03-24T15:10:15;7.43;;;3.97;;
26750;SDS011;14345;48.272;25.926;2023-03-24T15:15:17;8.95;;;5.10;;
26750;SDS011;14345;48.272;25.926;2023-03-24T15:17:44;15.93;;;6.68;;
26750;SDS011;14345;48.272;25.926;2023-03-24T15:20:24;11.93;;;6.65;;
26750;SDS011;14345;48.272;25.926;2023-03-24T15:22:51;12.35;;;5.85;;
26750;SDS011;14345;48.272;25.926;2023-03-24T15:25:23;16.05;;;5.78;;
26750;SDS011;14345;48.272;25.926;2023-03-24T15:27:50;6.95;;;3.78;;
26750;SDS011;14345;48.272;25.926;2023-03-24T15:30:16;10.45;;;3.97;;
26750;SDS011;14345;48.272;25.926;2023-03-24T15:32:42;7.00;;;3.55;;
26750;SDS011;14345;48.272;25.926;2023-03-24T15:35:15;7.63;;;3.88;;
26750;SDS011;14345;48.272;25.926;2023-03-24T15:37:42;5.70;;;3.30;;
26750;SDS011;14345;48.272;25.926;2023-03-24T15:42:50;7.93;;;3.08;;
26750;SDS011;14345;48.272;25.926;2023-03-24T15:45:30;8.13;;;3.97;;
26750;SDS011;14345;48.272;25.926;2023-03-24T15:47:56;10.45;;;4.20;;
26750;SDS011;14345;48.272;25.926;2023-03-24T15:50:27;9.55;;;4.13;;
26750;SDS011;14345;48.272;25.926;2023-03-24T15:53:01;5.40;;;4.25;;
26750;SDS011;14345;48.272;25.926;2023-03-24T15:57:54;10.65;;;4.75;;
26750;SDS011;14345;48.272;25.926;2023-03-24T16:00:28;16.10;;;6.45;;
26750;SDS011;14345;48.272;25.926;2023-03-24T16:02:54;12.75;;;6.70;;
26750;SDS011;14345;48.272;25.926;2023-03-24T16:05:22;10.18;;;6.28;;
26750;SDS011;14345;48.272;25.926;2023-03-24T16:08:21;12.45;;;6.40;;
26750;SDS011;14345;48.272;25.926;2023-03-24T16:10:41;16.08;;;6.20;;
26750;SDS011;14345;48.272;25.926;2023-03-24T16:13:18;15.73;;;6.13;;
26750;SDS011;14345;48.272;25.926;2023-03-24T16:15:52;7.18;;;4.63;;
26750;SDS011;14345;48.272;25.926;2023-03-24T16:18:20;13.10;;;5.90;;
26750;SDS011;14345;48.272;25.926;2023-03-24T16:20:48;13.98;;;5.28;;
26750;SDS011;14345;48.272;25.926;2023-03-24T16:23:15;9.93;;;5.72;;
26750;SDS011;14345;48.272;25.926;2023-03-24T16:25:42;11.82;;;5.63;;
26750;SDS011;14345;48.272;25.926;2023-03-24T16:28:11;13.20;;;6.10;;
26750;SDS011;14345;48.272;25.926;2023-03-24T16:30:39;11.63;;;4.90;;
26750;SDS011;14345;48.272;25.926;2023-03-24T16:33:06;13.68;;;6.05;;
26750;SDS011;14345;48.272;25.926;2023-03-24T16:35:32;10.27;;;5.30;;
26750;SDS011;14345;48.272;25.926;2023-03-24T16:37:58;9.73;;;5.53;;
26750;SDS011;14345;48.272;25.926;2023-03-24T16:42:54;9.02;;;4.80;;
26750;SDS011;14345;48.272;25.926;2023-03-24T16:45:20;12.40;;;5.30;;
26750;SDS011;14345;48.272;25.926;2023-03-24T16:47:46;11.77;;;4.60;;
26750;SDS011;14345;48.272;25.926;2023-03-24T16:50:21;8.30;;;4.78;;
26750;SDS011;14345;48.272;25.926;2023-03-24T16:52:49;13.48;;;5.60;;
26750;SDS011;14345;48.272;25.926;2023-03-24T16:55:15;13.50;;;4.75;;
26750;SDS011;14345;48.272;25.926;2023-03-24T16:57:41;11.75;;;5.10;;
26750;SDS011;14345;48.272;25.926;2023-03-24T17:00:07;13.60;;;5.47;;
26750;SDS011;14345;48.272;25.926;2023-03-24T17:02:37;11.68;;;5.43;;
26750;SDS011;14345;48.272;25.926;2023-03-24T17:07:42;14.95;;;5.28;;
26750;SDS011;14345;48.272;25.926;2023-03-24T17:10:08;13.50;;;5.57;;
26750;SDS011;14345;48.272;25.926;2023-03-24T17:12:34;11.88;;;5.22;;
26750;SDS011;14345;48.272;25.926;2023-03-24T17:15:00;18.65;;;6.95;;
26750;SDS011;14345;48.272;25.926;2023-03-24T17:17:26;16.02;;;7.63;;
26750;SDS011;14345;48.272;25.926;2023-03-24T17:19:52;16.45;;;7.30;;
26750;SDS011;14345;48.272;25.926;2023-03-24T17:22:18;19.80;;;9.00;;